Time;durP1;ratioP1;P1;durP2;ratioP2;P2;SDS_P1;SDS_P2;PMS_P1;PMS_P2;Temp;Humidity;BMP_temperature;BMP_pressure;BME280_temperature;BME280_humidity;BME280_pressure;Samples;Min_cycle;Max_cycle;Signal;HPM_P1;HPM_P2
2022/11/16 00:00:31;;;;;;;466.08;421.05;;;;;;;7.08;100.00;97318.94;7384809;19;20127;-49
2022/11/16 00:03:07;;;;;;;475.92;430.50;;;;;;;6.76;100.00;97317.38;7388878;19;20480;-48
2022/11/16 00:05:40;;;;;;;488.63;441.92;;;;;;;6.97;100.00;97313.50;7385733;19;20034;-50
2022/11/16 00:08:16;;;;;;;536.20;479.98;;;;;;;6.74;100.00;97316.66;7387623;19;20015;-49
2022/11/16 00:10:50;;;;;;;693.70;579.60;;;;;;;6.75;100.00;97312.25;7383899;19;20363;-49
2022/11/16 00:13:23;;;;;;;680.78;562.22;;;;;;;6.96;100.00;97306.56;7390357;19;20044;-50
2022/11/16 00:16:02;;;;;;;654.00;550.13;;;;;;;7.09;100.00;97302.31;7390217;19;20032;-49
2022/11/16 00:18:36;;;;;;;544.67;484.70;;;;;;;6.85;100.00;97303.75;7389892;19;20046;-49
2022/11/16 00:21:10;;;;;;;479.67;432.77;;;;;;;6.90;100.00;97306.97;7389973;19;20361;-49
2022/11/16 00:23:46;;;;;;;463.30;417.45;;;;;;;6.76;100.00;97298.25;7380856;19;20459;-50
2022/11/16 00:26:19;;;;;;;433.15;389.13;;;;;;;6.83;100.00;97296.97;7389369;19;20013;-48
2022/11/16 00:28:53;;;;;;;444.00;400.05;;;;;;;6.77;100.00;97308.59;7381187;19;20342;-58
2022/11/16 00:31:27;;;;;;;438.50;394.45;;;;;;;6.74;100.00;97313.19;7389770;19;20011;-50
2022/11/16 00:34:00;;;;;;;434.70;390.80;;;;;;;6.77;100.00;97306.00;7387678;19;20031;-49
2022/11/16 00:36:33;;;;;;;456.00;410.33;;;;;;;6.90;100.00;97308.72;7384947;19;20018;-49
2022/11/16 00:39:10;;;;;;;450.83;405.77;;;;;;;6.98;100.00;97302.13;7387978;19;20340;-48
2022/11/16 00:41:43;;;;;;;460.33;415.20;;;;;;;6.87;100.00;97294.06;7383868;19;20078;-60
2022/11/16 00:44:17;;;;;;;431.85;388.63;;;;;;;6.90;100.00;97306.97;7387018;19;20078;-48
2022/11/16 00:46:50;;;;;;;428.88;386.13;;;;;;;6.85;100.00;97303.75;7386351;19;20033;-49
2022/11/16 00:49:24;;;;;;;451.20;406.00;;;;;;;6.71;100.00;97303.78;7379726;19;20025;-51
2022/11/16 00:51:57;;;;;;;442.05;398.45;;;;;;;6.71;100.00;97300.31;7387467;19;20029;-51
2022/11/16 00:54:33;;;;;;;456.70;412.30;;;;;;;6.77;100.00;97287.72;7385158;19;20007;-59
2022/11/16 00:57:06;;;;;;;447.10;403.02;;;;;;;6.86;100.00;97295.00;7387995;19;20017;-48
2022/11/16 00:59:40;;;;;;;454.52;410.17;;;;;;;6.77;100.00;97289.50;7387694;19;20018;-49
2022/11/16 01:02:13;;;;;;;444.70;399.85;;;;;;;6.67;100.00;97286.59;7381524;19;20512;-48
2022/11/16 01:04:47;;;;;;;434.02;391.25;;;;;;;6.65;100.00;97282.38;7388630;19;20010;-49
2022/11/16 01:07:21;;;;;;;438.98;395.55;;;;;;;6.80;100.00;97287.53;7381719;19;20010;-59
2022/11/16 01:09:57;;;;;;;438.67;395.13;;;;;;;6.72;100.00;97281.94;7387146;19;20020;-50
2022/11/16 01:12:28;;;;;;;436.33;392.30;;;;;;;6.65;100.00;97279.75;7385929;19;20379;-48
2022/11/16 01:15:01;;;;;;;470.45;424.20;;;;;;;6.75;100.00;97276.53;7383485;19;20011;-49
2022/11/16 01:17:37;;;;;;;456.30;411.52;;;;;;;6.59;100.00;97280.97;7384748;19;20038;-50
2022/11/16 01:20:14;;;;;;;460.90;415.90;;;;;;;6.52;100.00;97281.44;7383768;19;20034;-57
2022/11/16 01:22:48;;;;;;;461.58;416.25;;;;;;;6.42;100.00;97277.66;7385300;19;20010;-49
2022/11/16 01:25:25;;;;;;;444.75;400.40;;;;;;;6.47;100.00;97279.06;7387579;19;20066;-51
2022/11/16 01:27:59;;;;;;;441.92;397.38;;;;;;;6.57;100.00;97272.38;7386030;19;20025;-50
2022/11/16 01:30:43;;;;;;;428.27;385.10;;;;;;;6.62;100.00;97261.69;7385434;19;20009;-49
2022/11/16 01:33:17;;;;;;;459.63;413.52;;;;;;;6.64;100.00;97259.81;7381695;19;20010;-51
2022/11/16 01:35:51;;;;;;;437.25;393.30;;;;;;;6.60;100.00;97258.31;7386843;19;20515;-49
2022/11/16 01:38:24;;;;;;;455.13;409.67;;;;;;;6.69;100.00;97248.16;7381410;19;20030;-57
2022/11/16 01:41:00;;;;;;;456.75;411.70;;;;;;;6.69;100.00;97252.53;7385600;19;20028;-49
2022/11/16 01:43:55;;;;;;;448.25;402.95;;;;;;;6.85;100.00;97248.88;7385993;19;20015;-50
2022/11/16 01:46:32;;;;;;;449.15;404.75;;;;;;;6.67;100.00;97250.03;7384430;19;20010;-50
2022/11/16 01:49:09;;;;;;;465.85;420.23;;;;;;;6.46;100.00;97250.44;7381748;19;20018;-58
2022/11/16 01:51:45;;;;;;;475.75;429.98;;;;;;;6.37;100.00;97251.81;7385606;19;20010;-48
2022/11/16 01:54:21;;;;;;;483.05;436.88;;;;;;;6.44;100.00;97241.88;7383156;19;20031;-50
2022/11/16 01:57:11;;;;;;;484.30;438.42;;;;;;;6.64;100.00;97244.13;7385455;19;20011;-49
2022/11/16 01:59:55;;;;;;;469.38;422.90;;;;;;;6.62;100.00;97236.38;7378656;19;20018;-48
2022/11/16 02:02:30;;;;;;;476.35;427.75;;;;;;;6.75;100.00;97231.25;7383399;19;20030;-48
2022/11/16 02:05:06;;;;;;;457.30;412.15;;;;;;;6.64;100.00;97228.44;7383661;19;20026;-57
2022/11/16 02:11:05;;;;;;;466.52;420.38;;;;;;;6.25;100.00;97223.81;7385201;19;20009;-48
2022/11/16 02:13:51;;;;;;;462.00;416.88;;;;;;;6.25;100.00;97223.81;7381370;19;20014;-55
2022/11/16 02:16:36;;;;;;;434.50;390.13;;;;;;;6.48;100.00;97207.63;7386128;19;20370;-48
2022/11/16 02:19:33;;;;;;;472.75;425.95;;;;;;;6.59;100.00;97207.00;7378142;19;20007;-49
2022/11/16 02:22:19;;;;;;;458.60;412.95;;;;;;;6.57;100.00;97220.16;7383126;19;20014;-48
2022/11/16 02:25:05;;;;;;;461.42;416.00;;;;;;;6.64;100.00;97213.63;7384308;19;20038;-48
2022/11/16 02:28:02;;;;;;;481.80;434.27;;;;;;;6.67;100.00;97213.44;7380869;19;20021;-50
2022/11/16 02:30:38;;;;;;;469.88;425.00;;;;;;;6.77;100.00;97204.09;7389866;19;20011;-49
2022/11/16 02:33:17;;;;;;;465.05;419.60;;;;;;;6.71;100.00;97204.50;7391322;19;20010;-48
2022/11/16 02:35:55;;;;;;;441.63;397.52;;;;;;;6.57;100.00;97198.41;7391843;19;20029;-49
2022/11/16 02:38:33;;;;;;;447.33;401.75;;;;;;;6.51;100.00;97189.16;7388282;19;20014;-48
2022/11/16 02:41:11;;;;;;;441.45;397.58;;;;;;;6.49;100.00;97192.81;7390748;19;20350;-48
2022/11/16 02:43:48;;;;;;;445.45;400.42;;;;;;;6.54;100.00;97195.97;7387732;19;20012;-48
2022/11/16 02:46:27;;;;;;;442.50;398.55;;;;;;;6.63;100.00;97182.38;7390747;19;20010;-57
2022/11/16 02:49:06;;;;;;;481.27;434.25;;;;;;;6.49;100.00;97177.13;7383421;19;20073;-48
2022/11/16 02:51:42;;;;;;;474.65;428.83;;;;;;;6.54;100.00;97173.31;7391421;19;20497;-51
2022/11/16 02:54:17;;;;;;;465.58;419.60;;;;;;;6.50;100.00;97170.97;7386600;19;20051;-58
2022/11/16 02:56:59;;;;;;;460.95;415.10;;;;;;;6.47;100.00;97172.00;7390074;19;20003;-48
2022/11/16 02:59:38;;;;;;;434.20;390.38;;;;;;;6.70;100.00;97174.06;7391099;19;20014;-59
2022/11/16 03:02:27;;;;;;;438.20;393.75;;;;;;;6.52;100.00;97177.81;7390581;19;20014;-49
2022/11/16 03:05:07;;;;;;;446.92;401.60;;;;;;;6.60;100.00;97175.56;7382977;19;20014;-59
2022/11/16 03:07:51;;;;;;;466.45;421.20;;;;;;;6.70;100.00;97183.69;7389988;19;20664;-58
2022/11/16 03:13:18;;;;;;;457.13;412.48;;;;;;;6.51;100.00;97170.06;7391360;19;20022;-51
2022/11/16 03:15:53;;;;;;;480.63;433.75;;;;;;;6.61;100.00;97164.19;7386050;19;20019;-48
2022/11/16 03:18:32;;;;;;;479.48;433.40;;;;;;;6.46;100.00;97167.72;7391379;19;20074;-48
2022/11/16 03:21:16;;;;;;;474.90;427.70;;;;;;;6.41;100.00;97161.94;7385037;19;20483;-48
2022/11/16 03:23:51;;;;;;;464.27;418.77;;;;;;;6.34;100.00;97162.41;7389321;19;20025;-48
2022/11/16 03:26:30;;;;;;;466.50;420.67;;;;;;;6.25;100.00;97162.97;7385025;19;20021;-56
2022/11/16 03:29:08;;;;;;;460.60;415.80;;;;;;;6.33;100.00;97153.72;7391488;19;20010;-51
2022/11/16 03:31:50;;;;;;;469.83;424.33;;;;;;;6.33;100.00;97158.13;7387995;19;20025;-59
2022/11/16 03:34:32;;;;;;;464.88;420.00;;;;;;;6.47;100.00;97153.72;7391455;19;20007;-48
2022/11/16 03:37:08;;;;;;;454.13;408.63;;;;;;;6.46;100.00;97152.06;7385159;19;20078;-59
2022/11/16 03:39:45;;;;;;;437.73;393.58;;;;;;;6.47;100.00;97148.50;7389500;19;20014;-49
2022/11/16 03:42:19;;;;;;;471.13;425.77;;;;;;;6.59;100.00;97146.94;7387189;19;20473;-51
2022/11/16 03:44:55;;;;;;;655.78;557.10;;;;;;;6.60;100.00;97139.00;7389184;19;20033;-50
2022/11/16 03:47:28;;;;;;;584.55;519.75;;;;;;;6.42;100.00;97139.28;7387361;19;20450;-49
2022/11/16 03:50:04;;;;;;;592.05;526.97;;;;;;;6.37;100.00;97147.38;7383374;19;20011;-50
2022/11/16 03:52:37;;;;;;;571.40;509.88;;;;;;;6.15;100.00;97128.66;7391284;19;20062;-49
2022/11/16 03:55:12;;;;;;;589.15;523.25;;;;;;;6.09;100.00;97141.25;7387651;19;20011;-51
2022/11/16 03:57:45;;;;;;;468.13;422.85;;;;;;;6.25;100.00;97137.66;7388276;19;20047;-49
2022/11/16 04:00:20;;;;;;;459.90;415.13;;;;;;;6.31;100.00;97133.84;7388843;19;20036;-49
2022/11/16 04:02:53;;;;;;;482.02;435.02;;;;;;;6.19;100.00;97130.19;7384811;19;20487;-48
2022/11/16 04:25:13;;;;;;;448.63;404.08;;;;;;;6.15;100.00;97125.25;7387363;19;20007;-58
2022/11/16 04:37:47;;;;;;;466.90;418.45;;;;;;;5.86;100.00;97128.72;7379976;19;20011;-55
2022/11/16 04:39:03;;;;;;;447.08;402.30;;;;;;;5.90;100.00;97114.56;7386273;19;20803;-59
2022/11/16 04:44:22;;;;;;;476.80;430.50;;;;;;;5.70;100.00;97105.31;7384527;19;20010;-58
2022/11/16 04:47:05;;;;;;;472.80;426.20;;;;;;;5.75;100.00;97116.31;7384012;19;20345;-48
2022/11/16 04:49:40;;;;;;;465.00;419.25;;;;;;;5.71;100.00;97114.84;7385201;19;20402;-49
2022/11/16 04:52:13;;;;;;;486.23;438.55;;;;;;;5.78;100.00;97115.31;7387625;19;20461;-50
2022/11/16 04:54:51;;;;;;;471.95;425.42;;;;;;;5.56;100.00;97117.47;7386428;19;20013;-48
2022/11/16 04:57:24;;;;;;;499.83;450.85;;;;;;;5.39;100.00;97113.22;7382893;19;20014;-50
2022/11/16 04:59:57;;;;;;;488.35;441.30;;;;;;;5.49;100.00;97114.38;7386057;19;20029;-50
2022/11/16 05:02:31;;;;;;;482.17;435.52;;;;;;;5.62;100.00;97112.75;7386015;19;20010;-59
2022/11/16 05:05:05;;;;;;;482.13;435.33;;;;;;;5.60;100.00;97111.16;7387119;19;20018;-53
2022/11/16 05:07:39;;;;;;;462.15;416.40;;;;;;;5.23;100.00;97116.78;7387243;19;20090;-48
2022/11/16 05:10:21;;;;;;;466.77;420.25;;;;;;;5.15;100.00;97111.16;7381067;19;20015;-49
2022/11/16 05:12:56;;;;;;;458.75;413.27;;;;;;;5.07;100.00;97108.97;7383908;19;20017;-46
2022/11/16 05:15:30;;;;;;;482.20;434.30;;;;;;;4.81;100.00;97104.38;7379153;19;20007;-46
2022/11/16 05:18:05;;;;;;;476.77;430.20;;;;;;;5.12;100.00;97111.34;7385449;19;20070;-46
2022/11/16 05:26:18;;;;;;;477.58;429.77;;;;;;;4.60;100.00;97105.53;7377910;19;20069;-46
2022/11/16 05:28:52;;;;;;;482.52;435.20;;;;;;;4.56;100.00;97111.81;7384714;19;20042;-46
2022/11/16 05:31:27;;;;;;;480.45;433.02;;;;;;;4.65;100.00;97109.56;7384026;19;20014;-58
2022/11/16 05:34:01;;;;;;;481.40;433.95;;;;;;;4.65;100.00;97106.13;7384644;19;20014;-48
2022/11/16 05:36:37;;;;;;;480.08;432.65;;;;;;;4.73;100.00;97104.81;7385544;19;20026;-47
2022/11/16 05:39:10;;;;;;;493.77;444.45;;;;;;;4.65;100.00;97111.34;7380855;19;20006;-46
2022/11/16 05:41:48;;;;;;;490.65;442.63;;;;;;;4.80;100.00;97107.91;7381730;19;20070;-47
2022/11/16 05:44:23;;;;;;;485.15;436.80;;;;;;;4.82;100.00;97100.84;7375278;19;20389;-47
2022/11/16 05:46:57;;;;;;;501.25;453.20;;;;;;;5.03;100.00;97097.91;7381994;19;20018;-48
2022/11/16 05:49:31;;;;;;;498.25;450.63;;;;;;;4.85;100.00;97106.72;7379229;19;20015;-46
2022/11/16 05:52:04;;;;;;;482.98;435.40;;;;;;;4.67;100.00;97109.47;7381505;19;20011;-44
2022/11/16 05:54:38;;;;;;;490.13;443.17;;;;;;;4.51;100.00;97099.06;7378976;19;20024;-45
2022/11/16 05:57:14;;;;;;;476.73;429.77;;;;;;;4.70;100.00;97110.19;7376549;19;20018;-45
2022/11/16 05:59:47;;;;;;;462.92;417.95;;;;;;;4.87;100.00;97098.84;7385926;19;20015;-49
2022/11/16 06:02:21;;;;;;;472.02;426.10;;;;;;;4.47;100.00;97105.38;7382443;19;20007;-48
2022/11/16 06:04:54;;;;;;;461.52;416.23;;;;;;;4.48;100.00;97106.19;7379178;19;20291;-47
2022/11/16 06:07:28;;;;;;;443.80;399.15;;;;;;;4.69;100.00;97110.25;7379510;19;20003;-46
2022/11/16 06:10:01;;;;;;;452.58;406.55;;;;;;;4.21;100.00;97107.66;7377229;19;20623;-47
2022/11/16 06:12:40;;;;;;;448.90;403.88;;;;;;;4.11;100.00;97106.47;7383635;19;20011;-49
2022/11/16 06:15:14;;;;;;;436.80;391.33;;;;;;;4.25;100.00;97106.59;7382134;19;20013;-57
2022/11/16 06:17:47;;;;;;;449.17;402.67;;;;;;;4.25;100.00;97098.78;7385602;19;20302;-45
2022/11/16 06:20:22;;;;;;;464.67;417.27;;;;;;;4.22;100.00;97104.13;7385267;19;20015;-46
2022/11/16 06:22:57;;;;;;;458.33;411.20;;;;;;;4.17;100.00;97101.75;7376801;19;20019;-46
2022/11/16 06:25:31;;;;;;;435.88;390.77;;;;;;;4.22;100.00;97096.31;7383374;19;20049;-46
2022/11/16 06:28:09;;;;;;;460.83;413.27;;;;;;;4.45;100.00;97095.94;7379049;19;20011;-57
2022/11/16 06:30:43;;;;;;;432.55;387.65;;;;;;;4.38;100.00;97100.63;7378986;19;20019;-45
2022/11/16 06:33:20;;;;;;;441.60;396.63;;;;;;;4.30;100.00;97107.16;7379767;19;20469;-46
2022/11/16 06:35:54;;;;;;;447.00;400.90;;;;;;;4.47;100.00;97102.78;7379769;19;21003;-46
2022/11/16 06:38:31;;;;;;;456.80;411.85;;;;;;;4.50;100.00;97105.19;7379486;19;20014;-46
2022/11/16 06:41:05;;;;;;;458.25;411.45;;;;;;;4.37;100.00;97095.50;7374492;19;20014;-47
2022/11/16 06:43:46;;;;;;;436.50;391.67;;;;;;;4.33;100.00;97094.84;7380588;19;20042;-55
2022/11/16 06:46:23;;;;;;;451.58;405.42;;;;;;;4.62;100.00;97091.53;7371828;19;20025;-47
2022/11/16 06:48:57;;;;;;;439.02;394.30;;;;;;;4.80;100.00;97098.31;7379846;19;20053;-49
2022/11/16 06:51:31;;;;;;;456.05;411.27;;;;;;;4.35;100.00;97092.16;7380320;19;20083;-47
2022/11/16 06:54:05;;;;;;;465.35;419.02;;;;;;;4.35;100.00;97086.97;7378966;19;20015;-50
2022/11/16 06:56:40;;;;;;;464.63;418.17;;;;;;;4.22;100.00;97078.97;7380150;19;20002;-45
2022/11/16 06:59:16;;;;;;;524.63;474.17;;;;;;;4.29;100.00;97084.69;7374069;19;20010;-45
2022/11/16 07:01:51;;;;;;;499.33;450.80;;;;;;;4.25;100.00;97080.56;7380881;19;20027;-52
2022/11/16 07:04:24;;;;;;;486.33;439.17;;;;;;;4.33;100.00;97074.03;7382693;19;20034;-52
2022/11/16 07:07:02;;;;;;;471.40;424.38;;;;;;;4.24;100.00;97081.50;7380390;19;20552;-46
2022/11/16 07:09:35;;;;;;;484.30;436.35;;;;;;;4.32;100.00;97077.53;7379871;19;20017;-49
2022/11/16 07:12:10;;;;;;;515.17;465.08;;;;;;;4.38;100.00;97073.75;7376338;19;20014;-49
2022/11/16 07:14:49;;;;;;;523.88;474.77;;;;;;;4.36;100.00;97070.41;7379310;19;20014;-51
2022/11/16 07:17:25;;;;;;;493.27;443.77;;;;;;;4.43;100.00;97069.16;7380857;19;20018;-47
2022/11/16 07:19:59;;;;;;;495.77;447.45;;;;;;;4.38;100.00;97068.56;7390770;19;20014;-48
2022/11/16 07:22:32;;;;;;;496.20;448.45;;;;;;;4.38;100.00;97065.97;7389538;19;20014;-45
2022/11/16 07:25:06;;;;;;;503.45;455.70;;;;;;;4.53;100.00;97075.56;7388811;19;20506;-47
2022/11/16 07:27:40;;;;;;;479.92;434.65;;;;;;;4.50;100.00;97070.53;7390065;19;20015;-47
2022/11/16 07:30:18;;;;;;;500.25;451.90;;;;;;;4.63;100.00;97067.16;7382911;19;20070;-45
2022/11/16 07:33:04;;;;;;;501.08;453.65;;;;;;;4.56;100.00;97051.94;7388775;19;20070;-45
2022/11/16 07:35:55;;;;;;;496.95;449.88;;;;;;;4.76;100.00;97052.53;7388156;19;20014;-47
2022/11/16 07:38:29;;;;;;;490.55;443.25;;;;;;;4.68;100.00;97056.50;7385861;19;20331;-49
2022/11/16 07:41:05;;;;;;;500.55;451.80;;;;;;;4.71;100.00;97062.38;7380272;19;20050;-48
2022/11/16 07:43:42;;;;;;;488.23;440.92;;;;;;;4.43;100.00;97070.00;7386076;19;20018;-50
2022/11/16 07:46:22;;;;;;;493.13;444.45;;;;;;;4.45;100.00;97065.56;7377449;19;20014;-46
2022/11/16 07:48:56;;;;;;;496.27;448.73;;;;;;;4.50;100.00;97068.75;7383978;19;20042;-49
2022/11/16 07:51:48;;;;;;;507.17;458.88;;;;;;;4.42;100.00;97064.91;7382459;19;20018;-46
2022/11/16 07:54:36;;;;;;;498.38;450.73;;;;;;;4.25;100.00;97065.81;7386303;19;20010;-46
2022/11/16 07:57:10;;;;;;;472.80;426.30;;;;;;;4.19;100.00;97073.91;7386369;19;20010;-46
2022/11/16 07:59:46;;;;;;;477.30;431.10;;;;;;;4.21;100.00;97072.06;7385966;19;20010;-46
2022/11/16 08:02:22;;;;;;;499.58;451.13;;;;;;;4.41;100.00;97068.41;7377423;19;20015;-51
2022/11/16 08:04:57;;;;;;;486.13;438.67;;;;;;;4.31;100.00;97065.44;7384413;19;20041;-46
2022/11/16 08:07:33;;;;;;;494.73;447.58;;;;;;;4.34;100.00;97067.03;7383574;19;20362;-52
2022/11/16 08:10:07;;;;;;;487.13;440.73;;;;;;;4.25;100.00;97060.59;7388242;19;20006;-47
2022/11/16 08:12:43;;;;;;;481.33;436.05;;;;;;;4.33;100.00;97060.16;7387128;19;20349;-48
2022/11/16 08:15:17;;;;;;;499.00;451.00;;;;;;;4.29;100.00;97056.06;7381615;19;20022;-47
2022/11/16 08:17:53;;;;;;;507.10;458.52;;;;;;;4.42;100.00;97049.28;7385286;19;20010;-48
2022/11/16 08:20:27;;;;;;;512.45;463.58;;;;;;;4.46;100.00;97066.41;7381677;19;20014;-51
2022/11/16 08:23:05;;;;;;;497.27;449.73;;;;;;;4.34;100.00;97061.84;7384760;19;20503;-48
2022/11/16 08:25:41;;;;;;;490.85;443.00;;;;;;;4.17;100.00;97056.72;7379134;19;20509;-54
2022/11/16 08:28:14;;;;;;;480.40;433.45;;;;;;;4.14;100.00;97051.66;7384757;19;20110;-47
2022/11/16 08:30:50;;;;;;;484.98;438.05;;;;;;;4.50;100.00;97047.91;7386403;19;20014;-45
2022/11/16 08:33:27;;;;;;;493.38;444.75;;;;;;;4.31;100.00;97052.44;7381772;19;20070;-47
2022/11/16 08:36:01;;;;;;;474.45;428.55;;;;;;;4.24;100.00;97045.88;7385586;19;20034;-45
2022/11/16 08:38:34;;;;;;;477.38;430.80;;;;;;;4.31;100.00;97055.03;7384882;19;20034;-58
2022/11/16 08:41:10;;;;;;;465.35;420.20;;;;;;;4.20;100.00;97035.75;7386682;19;20526;-47
2022/11/16 08:43:49;;;;;;;470.90;425.63;;;;;;;4.31;100.00;97051.63;7386276;19;20022;-46
2022/11/16 08:46:24;;;;;;;474.15;429.50;;;;;;;4.38;100.00;97045.13;7383491;19;20017;-46
2022/11/16 08:49:12;;;;;;;477.13;431.40;;;;;;;4.71;100.00;97040.69;7382528;19;20011;-46
2022/11/16 08:51:45;;;;;;;477.35;430.63;;;;;;;4.37;100.00;97039.13;7382510;19;20317;-50
2022/11/16 08:54:21;;;;;;;470.67;424.02;;;;;;;4.42;100.00;97042.28;7384505;19;20014;-49
2022/11/16 08:56:55;;;;;;;505.10;456.38;;;;;;;4.29;100.00;97045.66;7377270;19;20020;-47
2022/11/16 08:59:28;;;;;;;495.92;448.35;;;;;;;4.59;100.00;97037.00;7382712;19;20382;-46
2022/11/16 09:02:09;;;;;;;490.25;441.92;;;;;;;4.42;100.00;97038.88;7381766;19;20040;-48
2022/11/16 09:04:45;;;;;;;472.42;424.65;;;;;;;4.32;100.00;97048.09;7388796;19;20492;-45
2022/11/16 09:07:18;;;;;;;468.65;422.25;;;;;;;4.29;100.00;97043.91;7388232;19;20002;-48
2022/11/16 09:09:52;;;;;;;475.02;428.70;;;;;;;4.31;100.00;97041.22;7385613;19;20276;-45
2022/11/16 09:12:25;;;;;;;466.70;421.63;;;;;;;4.39;100.00;97037.25;7388043;19;20040;-45
2022/11/16 09:14:59;;;;;;;488.92;442.27;;;;;;;4.23;100.00;97041.63;7380890;19;20070;-49
2022/11/16 09:17:32;;;;;;;476.60;430.58;;;;;;;4.31;100.00;97036.81;7387719;19;20368;-46
2022/11/16 09:20:08;;;;;;;474.45;428.63;;;;;;;4.23;100.00;97040.75;7388379;19;20026;-47
2022/11/16 09:22:41;;;;;;;505.70;457.50;;;;;;;4.20;100.00;97046.16;7386110;19;20267;-45
2022/11/16 09:25:17;;;;;;;480.83;434.67;;;;;;;4.20;100.00;97035.75;7386412;19;20085;-49
2022/11/16 09:27:51;;;;;;;509.77;461.85;;;;;;;4.29;100.00;97046.50;7380423;19;20484;-46
2022/11/16 09:30:24;;;;;;;495.90;448.85;;;;;;;4.29;100.00;97038.69;7384353;19;20015;-52
2022/11/16 09:32:57;;;;;;;488.10;441.75;;;;;;;4.50;100.00;97028.88;7382152;19;20030;-50
2022/11/16 09:35:33;;;;;;;497.63;449.65;;;;;;;4.16;100.00;97034.19;7377983;19;20091;-50
2022/11/16 09:38:08;;;;;;;483.90;437.40;;;;;;;4.34;100.00;97033.22;7380823;19;20010;-49
2022/11/16 09:40:44;;;;;;;517.05;467.95;;;;;;;4.46;100.00;97030.78;7375364;19;20015;-46
2022/11/16 09:43:29;;;;;;;488.77;441.80;;;;;;;4.09;100.00;97041.50;7377371;19;20030;-51
2022/11/16 09:46:10;;;;;;;514.33;465.50;;;;;;;4.29;100.00;97035.25;7372671;19;20011;-51
2022/11/16 09:48:44;;;;;;;494.38;447.85;;;;;;;4.16;100.00;97026.41;7385979;19;20023;-47
2022/11/16 09:51:23;;;;;;;489.20;442.05;;;;;;;4.16;100.00;97026.41;7376199;19;20038;-55
2022/11/16 09:54:00;;;;;;;496.58;449.70;;;;;;;4.40;100.00;97030.28;7384637;19;20012;-51
2022/11/16 09:56:35;;;;;;;;;;;;;;;4.28;100.00;97023.97;7386088;19;20022;-52
2022/11/16 09:59:15;;;;;;;479.75;433.92;;;;;;;4.54;100.00;97026.00;7387324;19;20282;-49
2022/11/16 10:01:56;;;;;;;485.95;440.63;;;;;;;4.35;100.00;97021.91;7386486;19;20332;-49
2022/11/16 10:04:37;;;;;;;478.42;432.92;;;;;;;4.19;100.00;97019.28;7385842;19;20125;-47
2022/11/16 10:07:21;;;;;;;473.67;428.23;;;;;;;4.64;100.00;97016.75;7384006;19;20385;-47
2022/11/16 10:09:55;;;;;;;476.02;430.42;;;;;;;4.38;100.00;97011.31;7386689;19;20450;-48
2022/11/16 10:12:42;;;;;;;461.17;415.70;;;;;;;4.16;100.00;97008.19;7385473;19;20017;-49
2022/11/16 10:15:51;;;;;;;465.30;419.30;;;;;;;4.09;100.00;97012.88;7381665;19;20014;-51
2022/11/16 10:18:43;;;;;;;466.60;421.38;;;;;;;4.14;100.00;97010.91;7385971;19;20014;-46
2022/11/16 10:21:42;;;;;;;469.50;422.75;;;;;;;4.07;100.00;97011.28;7379615;19;20043;-51
2022/11/16 10:24:32;;;;;;;469.80;424.00;;;;;;;3.97;100.00;97004.91;7385000;19;20034;-46
2022/11/16 10:27:20;;;;;;;468.33;422.15;;;;;;;3.98;100.00;97011.81;7379358;19;20102;-51
2022/11/16 10:30:02;;;;;;;478.90;431.00;;;;;;;3.89;100.00;97017.47;7378207;19;20018;-51
2022/11/16 10:32:38;;;;;;;469.25;422.52;;;;;;;3.88;100.00;97010.59;7381981;19;20022;-49
2022/11/16 10:35:18;;;;;;;495.00;447.27;;;;;;;3.87;100.00;97014.13;7377990;19;21098;-53
2022/11/16 10:37:57;;;;;;;494.63;447.33;;;;;;;3.80;100.00;97012.72;7385444;19;20612;-48
2022/11/16 10:40:41;;;;;;;498.00;449.58;;;;;;;4.18;100.00;97008.97;7378463;19;20021;-48
2022/11/16 10:43:19;;;;;;;485.92;439.27;;;;;;;4.09;100.00;97009.47;7386516;19;20019;-50
2022/11/16 10:45:58;;;;;;;507.55;458.50;;;;;;;4.05;100.00;97013.97;7376858;19;20010;-48
2022/11/16 10:48:41;;;;;;;485.05;438.58;;;;;;;3.83;100.00;97012.59;7384759;19;20111;-52
2022/11/16 10:51:17;;;;;;;502.10;453.48;;;;;;;4.10;100.00;97006.75;7382291;19;20007;-51
2022/11/16 10:53:51;;;;;;;478.60;432.15;;;;;;;3.91;100.00;97015.63;7391906;19;20011;-51
2022/11/16 10:56:36;;;;;;;486.08;439.75;;;;;;;3.90;100.00;97008.72;7390234;19;20015;-56
2022/11/16 10:59:11;;;;;;;485.52;439.95;;;;;;;4.13;100.00;97003.19;7389621;19;20021;-51
2022/11/16 11:01:47;;;;;;;475.42;430.10;;;;;;;4.01;100.00;97009.00;7391100;19;20019;-50
2022/11/16 11:04:24;;;;;;;473.27;428.60;;;;;;;3.97;100.00;97004.91;7393323;19;20958;-48
2022/11/16 11:06:59;;;;;;;471.23;426.58;;;;;;;3.82;100.00;97001.34;7391118;19;20347;-50
2022/11/16 11:09:34;;;;;;;480.63;434.52;;;;;;;3.73;100.00;96995.78;7386526;19;20011;-45
2022/11/16 11:15:21;;;;;;;487.52;440.80;;;;;;;3.94;100.00;96994.66;7388887;19;20433;-51
2022/11/16 11:17:55;;;;;;;481.85;435.05;;;;;;;4.01;100.00;97001.19;7388787;19;20014;-54
2022/11/16 11:20:29;;;;;;;480.45;433.70;;;;;;;3.87;100.00;96995.91;7394378;19;20476;-51
2022/11/16 11:23:06;;;;;;;454.75;408.50;;;;;;;4.06;100.00;96997.44;7391080;19;20014;-51
2022/11/16 11:25:42;;;;;;;462.08;414.63;;;;;;;4.00;100.00;96987.38;7391894;19;20052;-49
2022/11/16 11:28:27;;;;;;;465.95;419.10;;;;;;;3.82;100.00;96988.34;7391525;19;20010;-51
2022/11/16 11:31:07;;;;;;;471.88;424.67;;;;;;;3.99;100.00;96988.28;7391683;19;20508;-47
2022/11/16 11:33:44;;;;;;;488.52;441.95;;;;;;;3.84;100.00;96994.28;7391364;19;20015;-50
2022/11/16 11:36:25;;;;;;;522.97;471.75;;;;;;;3.82;100.00;96992.72;7389008;19;20048;-51
2022/11/16 11:39:04;;;;;;;499.17;451.55;;;;;;;3.89;100.00;96991.47;7392056;19;20040;-50
2022/11/16 11:41:40;;;;;;;487.33;440.00;;;;;;;3.99;100.00;97000.47;7385915;19;20022;-50
2022/11/16 11:44:21;;;;;;;471.20;426.55;;;;;;;3.76;100.00;96993.00;7391067;19;20026;-50
2022/11/16 11:46:59;;;;;;;475.83;429.42;;;;;;;3.78;100.00;96989.41;7383285;19;20014;-46
2022/11/16 11:49:39;;;;;;;475.58;430.95;;;;;;;3.81;100.00;96997.09;7387396;19;20041;-48
2022/11/16 11:52:22;;;;;;;481.65;435.45;;;;;;;3.74;100.00;97000.03;7378014;19;20017;-46
2022/11/16 11:54:57;;;;;;;464.27;419.95;;;;;;;3.83;100.00;96997.81;7388887;19;20013;-50
2022/11/16 11:57:33;;;;;;;509.05;461.33;;;;;;;3.62;100.00;96988.50;7380852;19;20476;-47
2022/11/16 12:00:12;;;;;;;489.08;442.95;;;;;;;3.90;100.00;96993.13;7387593;19;20331;-49
2022/11/16 12:03:02;;;;;;;495.90;449.38;;;;;;;3.71;100.00;96993.25;7383298;19;20014;-52
2022/11/16 12:05:52;;;;;;;475.15;429.20;;;;;;;3.87;100.00;96982.91;7386934;19;20010;-47
2022/11/16 12:08:40;;;;;;;481.33;433.92;;;;;;;4.00;100.00;96989.13;7388264;19;20030;-49
2022/11/16 12:11:25;;;;;;;457.73;413.33;;;;;;;3.86;100.00;96983.81;7386144;19;20029;-50
2022/11/16 12:14:09;;;;;;;461.13;416.35;;;;;;;3.76;100.00;96986.03;7382572;19;20014;-49
2022/11/16 12:16:55;;;;;;;472.58;426.80;;;;;;;3.80;100.00;96982.34;7383063;19;20026;-58
2022/11/16 12:19:47;;;;;;;486.90;441.17;;;;;;;3.56;100.00;96977.59;7387334;19;20154;-45
2022/11/16 12:22:39;;;;;;;511.00;461.45;;;;;;;3.92;100.00;96978.31;7388308;19;20015;-49
2022/11/16 12:25:26;;;;;;;479.70;432.48;;;;;;;3.85;100.00;96970.00;7385598;19;20090;-53
2022/11/16 12:28:19;;;;;;;475.27;428.98;;;;;;;3.91;100.00;96979.22;7388758;19;20014;-50
2022/11/16 12:31:07;;;;;;;466.08;420.08;;;;;;;3.87;100.00;96970.75;7384419;19;20339;-50
2022/11/16 12:33:53;;;;;;;492.38;444.90;;;;;;;3.87;100.00;96975.13;7388348;19;20014;-48